This is the latest recevied weather packets stored in our database for station/object SQ9SMC-13. If no packets are shown the sender has not sent any weather packets the latest 10 day(s).
| Time | Temp. | Humidity | Pressure | Rain* | Wind** | Luminosity | Snow |
|---|---|---|---|---|---|---|---|
| 1777830604 | 21.67° C | 34% | 1016.8 hPa | 0 mm | - | 8 W/m² | - |
| 1777830305 | 21.67° C | 34% | 1016.9 hPa | 0 mm | - | 10 W/m² | - |
| 1777830003 | 22.22° C | 33% | 1016.7 hPa | 0 mm | - | 12 W/m² | - |
| 1777829704 | 22.22° C | 33% | 1017 hPa | 0 mm | - | 15 W/m² | - |
| 1777829402 | 22.78° C | 32% | 1016.9 hPa | 0 mm | - | 17 W/m² | - |
| 1777829104 | 22.78° C | 32% | 1016.9 hPa | 0 mm | - | 20 W/m² | - |
| 1777828803 | 22.78° C | 32% | 1016.9 hPa | 0 mm | - | 24 W/m² | - |
| 1777828504 | 22.78° C | 32% | 1016.9 hPa | 0 mm | - | 27 W/m² | - |
| 1777828203 | 23.33° C | 31% | 1016.8 hPa | 0 mm | - | 29 W/m² | - |
| 1777827903 | 23.33° C | 31% | 1016.8 hPa | 0 mm | - | 30 W/m² | - |
| 1777827605 | 23.33° C | 31% | 1016.9 hPa | 0 mm | - | 31 W/m² | - |
| 1777827305 | 23.33° C | 31% | 1016.8 hPa | 0 mm | - | 37 W/m² | - |
| 1777827002 | 23.89° C | 30% | 1016.8 hPa | 0 mm | - | 32 W/m² | - |
| 1777826705 | 23.89° C | 30% | 1016.9 hPa | 0 mm | - | 40 W/m² | - |
| 1777826404 | 23.89° C | 30% | 1016.9 hPa | 0 mm | - | 39 W/m² | - |
| 1777826103 | 23.89° C | 30% | 1016.9 hPa | 0 mm | - | 40 W/m² | - |
| 1777825803 | 23.89° C | 30% | 1016.8 hPa | 0 mm | - | 61 W/m² | - |
| 1777825503 | 24.44° C | 29% | 1016.9 hPa | 0 mm | - | 62 W/m² | - |
| 1777825203 | 24.44° C | 29% | 1016.9 hPa | 0 mm | - | 80 W/m² | - |
| 1777824902 | 24.44° C | 29% | 1016.8 hPa | 0 mm | - | 76 W/m² | - |
| 1777824604 | 25° C | 28% | 1016.9 hPa | 0 mm | - | 70 W/m² | - |
| 1777824305 | 24.44° C | 28% | 1017 hPa | 0 mm | - | 130 W/m² | - |
| 1777824004 | 25° C | 28% | 1017 hPa | 0 mm | - | 142 W/m² | - |
| 1777823703 | 25° C | 28% | 1017 hPa | 0 mm | - | 151 W/m² | - |
| 1777823404 | 24.44° C | 27% | 1017.1 hPa | 0 mm | - | 159 W/m² | - |
* Rain latest hour (hover to see other rain measurements)
** Current wind speed in m/s (hover to see current wind gust speed)